createdAt,value
2023-05-14T00:00:22.993Z,50.834827
2023-05-14T00:01:22.757Z,50.834827
2023-05-14T00:02:23.704Z,50.834827
2023-05-14T00:03:22.781Z,50.834812
2023-05-14T00:04:22.715Z,50.834805
2023-05-14T00:05:22.649Z,50.834824
2023-05-14T00:06:22.704Z,50.834827
2023-05-14T00:07:22.662Z,50.834797
2023-05-14T00:08:22.616Z,50.834812
2023-05-14T00:09:22.627Z,50.834789
2023-05-14T00:10:22.782Z,50.834808
2023-05-14T00:11:22.671Z,50.834812
2023-05-14T00:12:22.583Z,50.834816
2023-05-14T00:13:22.647Z,50.834835
2023-05-14T00:14:22.560Z,50.834831
2023-05-14T00:15:22.552Z,50.834843
2023-05-14T00:16:22.592Z,50.834885
2023-05-14T00:17:22.602Z,50.834839
2023-05-14T00:18:22.589Z,50.834820
2023-05-14T00:19:22.530Z,50.834827
2023-05-14T00:20:22.893Z,50.834831
2023-05-14T00:21:22.520Z,50.834820
2023-05-14T00:22:23.348Z,50.834816
2023-05-14T00:23:22.520Z,50.834824
2023-05-14T00:24:22.525Z,50.834839
2023-05-14T00:25:22.500Z,50.834827
2023-05-14T00:26:22.480Z,50.834835
2023-05-14T00:27:22.508Z,50.834839
2023-05-14T00:28:22.488Z,50.834846
2023-05-14T00:29:22.466Z,50.834850
2023-05-14T00:30:22.589Z,50.834881
2023-05-14T00:31:23.439Z,50.834862
2023-05-14T00:32:22.433Z,50.834827
2023-05-14T00:33:22.486Z,50.834835
2023-05-14T00:34:22.425Z,50.834854
2023-05-14T00:35:22.432Z,50.834827
2023-05-14T00:36:22.433Z,50.834824
2023-05-14T00:37:22.412Z,50.834820
2023-05-14T00:38:22.423Z,50.834831
2023-05-14T00:39:23.421Z,50.834816
2023-05-14T00:40:22.736Z,50.834827
2023-05-14T00:41:22.372Z,50.834858
2023-05-14T00:42:22.370Z,50.834835
2023-05-14T00:43:22.364Z,50.834866
2023-05-14T00:44:23.340Z,50.834862
2023-05-14T00:45:22.360Z,50.834843
2023-05-14T00:46:22.353Z,50.834850
2023-05-14T00:47:22.351Z,50.834862
2023-05-14T00:48:22.322Z,50.834881
2023-05-14T00:49:22.340Z,50.834881
2023-05-14T00:50:22.514Z,50.834850
2023-05-14T00:51:22.309Z,50.834839
2023-05-14T00:52:22.314Z,50.834824
2023-05-14T00:53:22.275Z,50.834820
2023-05-14T00:54:22.260Z,50.834858
2023-05-14T00:55:22.270Z,50.834846
2023-05-14T00:56:22.361Z,50.834885
2023-05-14T00:57:22.241Z,50.834888
2023-05-14T00:58:22.236Z,50.834892
2023-05-14T00:59:22.250Z,50.834854
2023-05-14T01:00:22.367Z,50.834827
2023-05-14T01:01:22.313Z,50.834888
2023-05-14T01:02:22.344Z,50.834888
2023-05-14T01:03:22.290Z,50.834866
2023-05-14T01:04:22.225Z,50.834877
2023-05-14T01:05:22.190Z,50.834885
2023-05-14T01:06:22.247Z,50.834888
2023-05-14T01:07:22.175Z,50.834900
2023-05-14T01:08:22.158Z,50.834877
2023-05-14T01:09:22.211Z,50.834869
2023-05-14T01:10:22.349Z,50.834846
2023-05-14T01:11:22.180Z,50.834839
2023-05-14T01:12:22.162Z,50.834862
2023-05-14T01:13:22.104Z,50.834858
2023-05-14T01:14:22.170Z,50.834824
2023-05-14T01:15:22.201Z,50.834862
2023-05-14T01:16:22.264Z,50.834846
2023-05-14T01:17:22.118Z,50.834831
2023-05-14T01:18:22.106Z,50.834827
2023-05-14T01:19:22.100Z,50.834831
2023-05-14T01:20:22.318Z,50.834862
2023-05-14T01:21:22.107Z,50.834854
2023-05-14T01:22:22.126Z,50.834816
2023-05-14T01:23:22.053Z,50.834824
2023-05-14T01:24:22.042Z,50.834862
2023-05-14T01:25:22.108Z,50.834866
2023-05-14T01:26:22.063Z,50.834824
2023-05-14T01:27:22.015Z,50.834835
2023-05-14T01:28:22.084Z,50.834831
2023-05-14T01:29:22.022Z,50.834831
2023-05-14T01:30:22.132Z,50.834843
2023-05-14T01:31:21.994Z,50.834846
2023-05-14T01:32:22.018Z,50.834839
2023-05-14T01:33:22.004Z,50.834824
2023-05-14T01:34:21.992Z,50.834831
2023-05-14T01:35:21.963Z,50.834835
2023-05-14T01:36:21.961Z,50.834831
2023-05-14T01:37:54.814Z,50.834808
2023-05-14T01:38:21.972Z,50.834785
2023-05-14T01:39:21.937Z,50.834808
2023-05-14T01:40:21.992Z,50.834812
2023-05-14T01:41:21.933Z,50.834816
2023-05-14T01:42:21.910Z,50.834816
2023-05-14T01:43:21.975Z,50.834789
2023-05-14T01:44:21.926Z,50.834793
2023-05-14T01:45:21.890Z,50.834743
2023-05-14T01:46:21.881Z,50.834747
2023-05-14T01:47:21.877Z,50.834743
2023-05-14T01:48:21.842Z,50.834774
2023-05-14T01:49:21.888Z,50.834789
2023-05-14T01:50:22.023Z,50.834778
2023-05-14T01:51:21.902Z,50.834793
2023-05-14T01:52:21.843Z,50.834827
2023-05-14T01:53:21.816Z,50.834820
2023-05-14T01:54:21.804Z,50.834820
2023-05-14T01:55:21.825Z,50.834839
2023-05-14T01:56:21.832Z,50.834812
2023-05-14T01:57:21.816Z,50.834850
2023-05-14T01:58:21.789Z,50.834812
2023-05-14T01:59:21.765Z,50.834862
2023-05-14T02:00:21.909Z,50.834854
2023-05-14T02:01:21.793Z,50.834774
2023-05-14T02:02:21.742Z,50.834805
2023-05-14T02:03:21.738Z,50.834854
2023-05-14T02:04:21.805Z,50.834877
2023-05-14T02:05:21.773Z,50.834850
2023-05-14T02:06:21.722Z,50.834835
2023-05-14T02:07:21.726Z,50.834793
2023-05-14T02:08:21.704Z,50.834835
2023-05-14T02:09:21.709Z,50.834797
2023-05-14T02:10:21.809Z,50.834827
2023-05-14T02:11:21.681Z,50.834827
2023-05-14T02:12:21.657Z,50.834820
2023-05-14T02:13:21.674Z,50.834812
2023-05-14T02:14:21.677Z,50.834801
2023-05-14T02:15:21.689Z,50.834827
2023-05-14T02:16:22.746Z,50.834824
2023-05-14T02:17:21.707Z,50.834854
2023-05-14T02:18:21.650Z,50.834858
2023-05-14T02:19:21.656Z,50.834824
2023-05-14T02:20:21.840Z,50.834801
2023-05-14T02:21:21.660Z,50.834824
2023-05-14T02:22:21.607Z,50.834835
2023-05-14T02:23:31.006Z,50.834854
2023-05-14T02:24:23.569Z,50.834854
2023-05-14T02:25:21.686Z,50.834812
2023-05-14T02:26:21.585Z,50.834820
2023-05-14T02:27:21.592Z,50.834827
2023-05-14T02:28:21.626Z,50.834808
2023-05-14T02:29:21.550Z,50.834808
2023-05-14T02:30:21.724Z,50.834785
2023-05-14T02:31:22.370Z,50.834812
2023-05-14T02:32:21.571Z,50.834782
2023-05-14T02:33:21.686Z,50.834747
2023-05-14T02:34:21.580Z,50.834766
2023-05-14T02:35:21.521Z,50.834812
2023-05-14T02:36:21.546Z,50.834827
2023-05-14T02:37:21.526Z,50.834805
2023-05-14T02:38:21.510Z,50.834820
2023-05-14T02:39:21.495Z,50.834785
2023-05-14T02:40:21.565Z,50.834801
2023-05-14T02:41:21.500Z,50.834824
2023-05-14T02:42:21.458Z,50.834827
2023-05-14T02:43:21.468Z,50.834820
2023-05-14T02:44:21.434Z,50.834801
2023-05-14T02:45:21.434Z,50.834805
2023-05-14T02:46:21.506Z,50.834862
2023-05-14T02:47:21.507Z,50.834808
2023-05-14T02:48:21.406Z,50.834820
2023-05-14T02:49:21.961Z,50.834812
2023-05-14T02:50:21.706Z,50.834785
2023-05-14T02:51:21.408Z,50.834820
2023-05-14T02:52:21.409Z,50.834793
2023-05-14T02:53:21.360Z,50.834782
2023-05-14T02:54:21.383Z,50.834812
2023-05-14T02:55:21.383Z,50.834831
2023-05-14T02:56:21.393Z,50.834820
2023-05-14T02:57:21.969Z,50.834827
2023-05-14T02:58:25.352Z,50.834816
2023-05-14T02:59:22.901Z,50.834808
2023-05-14T03:00:21.711Z,50.834797
2023-05-14T03:01:21.394Z,50.834805
2023-05-14T03:02:21.362Z,50.834816
2023-05-14T03:03:21.408Z,50.834831
2023-05-14T03:04:21.322Z,50.834812
2023-05-14T03:05:21.340Z,50.834797
2023-05-14T03:06:21.365Z,50.834778
2023-05-14T03:07:21.283Z,50.834789
2023-05-14T03:08:21.281Z,50.834778
2023-05-14T03:09:21.297Z,50.834797
2023-05-14T03:10:21.404Z,50.834778
2023-05-14T03:11:21.288Z,50.834808
2023-05-14T03:12:21.274Z,50.834827
2023-05-14T03:13:21.267Z,50.834808
2023-05-14T03:14:21.213Z,50.834831
2023-05-14T03:15:21.270Z,50.834797
2023-05-14T03:16:21.257Z,50.834820
2023-05-14T03:17:21.300Z,50.834808
2023-05-14T03:18:21.210Z,50.834782
2023-05-14T03:19:21.179Z,50.834793
2023-05-14T03:20:21.310Z,50.834770
2023-05-14T03:21:21.200Z,50.834789
2023-05-14T03:22:21.171Z,50.834785
2023-05-14T03:23:21.202Z,50.834782
2023-05-14T03:24:21.128Z,50.834793
2023-05-14T03:25:21.168Z,50.834789
2023-05-14T03:26:21.912Z,50.834812
2023-05-14T03:27:21.162Z,50.834805
2023-05-14T03:28:21.144Z,50.834766
2023-05-14T03:29:21.112Z,50.834778
2023-05-14T03:30:21.395Z,50.834774
2023-05-14T03:31:21.193Z,50.834785
2023-05-14T03:32:21.120Z,50.834774
2023-05-14T03:33:21.078Z,50.834763
2023-05-14T03:34:21.079Z,50.834782
2023-05-14T03:35:21.100Z,50.834770
2023-05-14T03:36:21.062Z,50.834785
2023-05-14T03:37:21.060Z,50.834778
2023-05-14T03:38:21.094Z,50.834793
2023-05-14T03:39:21.086Z,50.834801
2023-05-14T03:40:21.392Z,50.834782
2023-05-14T03:41:21.036Z,50.834770
2023-05-14T03:42:21.014Z,50.834782
2023-05-14T03:43:20.983Z,50.834778
2023-05-14T03:44:21.025Z,50.834778
2023-05-14T03:45:21.000Z,50.834770
2023-05-14T03:46:20.999Z,50.834778
2023-05-14T03:47:20.974Z,50.834770
2023-05-14T04:05:17.107Z,50.834816
2023-05-14T04:06:17.124Z,50.834831
2023-05-14T04:07:17.109Z,50.834793
2023-05-14T04:08:17.072Z,50.834759
2023-05-14T04:09:17.036Z,50.834782
2023-05-14T04:10:17.044Z,50.834774
2023-05-14T04:11:17.053Z,50.834755
2023-05-14T04:12:16.998Z,50.834747
2023-05-14T04:13:17.018Z,50.834759
2023-05-14T04:14:17.012Z,50.834755
2023-05-14T04:15:17.018Z,50.834743
2023-05-14T04:16:17.101Z,50.834763
2023-05-14T04:17:17.005Z,50.834759
2023-05-14T04:18:17.016Z,50.834766
2023-05-14T04:19:17.040Z,50.834763
2023-05-14T04:20:16.963Z,50.834774
2023-05-14T04:21:16.968Z,50.834766
2023-05-14T04:22:17.017Z,50.834789
2023-05-14T04:23:16.927Z,50.834755
2023-05-14T04:24:16.963Z,50.834766
2023-05-14T04:25:16.945Z,50.834759
2023-05-14T04:26:16.906Z,50.834770
2023-05-14T04:27:16.930Z,50.834766
2023-05-14T04:28:16.916Z,50.834747
2023-05-14T04:29:16.932Z,50.834766
2023-05-14T04:30:16.926Z,50.834759
2023-05-14T04:31:16.978Z,50.834763
2023-05-14T04:32:16.876Z,50.834755
2023-05-14T04:33:16.905Z,50.834736
2023-05-14T04:34:16.871Z,50.834743
2023-05-14T04:35:16.873Z,50.834766
2023-05-14T04:36:16.831Z,50.834751
2023-05-14T04:37:16.897Z,50.834755
2023-05-14T04:38:16.826Z,50.834759
2023-05-14T04:39:16.838Z,50.834751
2023-05-14T04:40:16.875Z,50.834751
2023-05-14T04:41:16.857Z,50.834770
2023-05-14T04:42:16.818Z,50.834759
2023-05-14T04:43:16.787Z,50.834774
2023-05-14T04:44:16.781Z,50.834785
2023-05-14T04:45:16.772Z,50.834785
2023-05-14T04:46:16.839Z,50.834778
2023-05-14T04:47:16.753Z,50.834763
2023-05-14T04:48:16.747Z,50.834785
2023-05-14T04:49:16.729Z,50.834774
2023-05-14T04:50:16.753Z,50.834782
2023-05-14T04:51:16.788Z,50.834778
2023-05-14T04:52:16.698Z,50.834766
2023-05-14T04:53:16.709Z,50.834782
2023-05-14T04:54:16.732Z,50.834782
2023-05-14T04:55:16.682Z,50.834763
2023-05-14T04:56:16.775Z,50.834789
2023-05-14T04:57:16.663Z,50.834812
2023-05-14T04:58:16.709Z,50.834793
2023-05-14T04:59:16.671Z,50.834824
2023-05-14T05:00:17.646Z,50.834785
2023-05-14T05:01:16.689Z,50.834782
2023-05-14T05:02:17.658Z,50.834785
2023-05-14T05:03:17.833Z,50.834801
2023-05-14T05:04:16.748Z,50.834801
2023-05-14T05:05:16.754Z,50.834808
2023-05-14T05:06:16.685Z,50.834808
2023-05-14T05:07:18.017Z,50.834801
2023-05-14T05:08:16.580Z,50.834824
2023-05-14T05:09:16.588Z,50.834824
2023-05-14T05:10:16.581Z,50.834812
2023-05-14T05:11:16.589Z,50.834801
2023-05-14T05:12:16.556Z,50.834785
2023-05-14T05:13:16.555Z,50.834805
2023-05-14T05:14:16.531Z,50.834797
2023-05-14T05:15:16.534Z,50.834797
2023-05-14T05:16:16.549Z,50.834805
2023-05-14T05:17:16.522Z,50.834789
2023-05-14T05:18:16.533Z,50.834797
2023-05-14T05:19:16.719Z,50.834789
2023-05-14T05:20:16.503Z,50.834805
2023-05-14T05:21:16.452Z,50.834820
2023-05-14T05:22:16.470Z,50.834797
2023-05-14T05:23:16.573Z,50.834824
2023-05-14T05:24:17.140Z,50.834812
2023-05-14T05:25:16.448Z,50.834789
2023-05-14T05:26:16.435Z,50.834785
2023-05-14T05:27:16.451Z,50.834805
2023-05-14T05:28:16.456Z,50.834824
2023-05-14T05:29:16.473Z,50.834797
2023-05-14T05:30:16.448Z,50.834805
2023-05-14T05:31:18.324Z,50.834805
2023-05-14T05:32:16.393Z,50.834808
2023-05-14T05:33:16.384Z,50.834812
2023-05-14T05:34:16.399Z,50.834827
2023-05-14T05:35:16.401Z,50.834839
2023-05-14T05:36:16.353Z,50.834839
2023-05-14T05:37:16.357Z,50.834797
2023-05-14T05:38:16.389Z,50.834831
2023-05-14T05:39:16.375Z,50.834831
2023-05-14T05:40:16.385Z,50.834827
2023-05-14T05:41:16.328Z,50.834827
2023-05-14T05:42:16.369Z,50.834827
2023-05-14T05:43:16.309Z,50.834843
2023-05-14T05:44:16.306Z,50.834839
2023-05-14T05:45:16.339Z,50.834850
2023-05-14T05:46:16.421Z,50.834839
2023-05-14T05:47:16.255Z,50.834824
2023-05-14T05:48:16.259Z,50.834835
2023-05-14T05:49:16.282Z,50.834831
2023-05-14T05:50:16.884Z,50.834843
2023-05-14T05:51:16.329Z,50.834846
2023-05-14T05:52:16.226Z,50.834843
2023-05-14T05:53:16.242Z,50.834843
2023-05-14T05:54:16.254Z,50.834858
2023-05-14T05:55:16.244Z,50.834850
2023-05-14T05:56:16.217Z,50.834873
2023-05-14T05:57:16.216Z,50.834846
2023-05-14T05:58:16.270Z,50.834846
2023-05-14T05:59:16.172Z,50.834827
2023-05-14T06:00:17.189Z,50.834839
2023-05-14T06:01:16.216Z,50.834850
2023-05-14T06:02:16.228Z,50.834824
2023-05-14T06:03:16.217Z,50.834835
2023-05-14T06:04:16.171Z,50.834846
2023-05-14T06:05:16.297Z,50.834831
2023-05-14T06:06:17.199Z,50.834862
2023-05-14T06:07:16.122Z,50.834850
2023-05-14T06:08:17.144Z,50.834843
2023-05-14T06:09:16.648Z,50.834850
2023-05-14T06:10:16.108Z,50.834850
2023-05-14T06:11:17.751Z,50.834839
2023-05-14T06:12:16.098Z,50.834846
2023-05-14T06:13:16.098Z,50.834835
2023-05-14T06:14:16.051Z,50.834839
2023-05-14T06:15:16.074Z,50.834831
2023-05-14T06:16:16.074Z,50.834846
2023-05-14T06:17:16.051Z,50.834827
2023-05-14T06:18:16.108Z,50.834820
2023-05-14T06:19:16.179Z,50.834835
2023-05-14T06:20:16.002Z,50.834820
2023-05-14T06:21:16.025Z,50.834839
2023-05-14T06:22:16.042Z,50.834824
2023-05-14T06:23:16.026Z,50.834839
2023-05-14T06:24:15.997Z,50.834854
2023-05-14T06:25:15.990Z,50.834850
2023-05-14T06:26:15.995Z,50.834854
2023-05-14T06:27:15.961Z,50.834888
2023-05-14T06:28:16.751Z,50.834850
2023-05-14T06:29:15.955Z,50.834835
2023-05-14T06:30:15.977Z,50.834824
2023-05-14T06:31:15.913Z,50.834816
2023-05-14T06:32:15.984Z,50.834839
2023-05-14T06:33:15.927Z,50.834854
2023-05-14T06:34:15.899Z,50.834843
2023-05-14T06:35:15.899Z,50.834858
2023-05-14T06:36:15.870Z,50.834846
2023-05-14T06:37:15.877Z,50.834846
2023-05-14T06:38:16.091Z,50.834831
2023-05-14T06:39:15.897Z,50.834801
2023-05-14T06:40:16.662Z,50.834843
2023-05-14T06:41:15.850Z,50.834839
2023-05-14T06:42:15.842Z,50.834877
2023-05-14T06:43:15.836Z,50.834858
2023-05-14T06:44:15.833Z,50.834877
2023-05-14T06:45:16.636Z,50.834839
2023-05-14T06:46:15.831Z,50.834873
2023-05-14T06:47:15.786Z,50.834866
2023-05-14T06:48:16.657Z,50.834866
2023-05-14T06:49:16.802Z,50.834862
2023-05-14T06:50:15.831Z,50.834831
2023-05-14T06:51:15.756Z,50.834866
2023-05-14T06:52:15.766Z,50.834862
2023-05-14T06:53:15.786Z,50.834862
2023-05-14T06:54:15.856Z,50.834846
2023-05-14T06:55:15.747Z,50.834831
2023-05-14T06:56:15.752Z,50.834831
2023-05-14T06:57:15.727Z,50.834835
2023-05-14T06:58:15.710Z,50.834862
2023-05-14T06:59:15.719Z,50.834850
2023-05-14T07:00:15.843Z,50.834835
2023-05-14T07:01:15.792Z,50.834881
2023-05-14T07:02:15.677Z,50.834862
2023-05-14T07:03:16.664Z,50.834835
2023-05-14T07:04:15.726Z,50.834835
2023-05-14T07:05:15.658Z,50.834854
2023-05-14T07:06:15.678Z,50.834877
2023-05-14T07:07:15.671Z,50.834846
2023-05-14T07:08:15.668Z,50.834808
2023-05-14T07:09:15.640Z,50.834805
2023-05-14T07:10:15.638Z,50.834831
2023-05-14T07:11:15.662Z,50.834831
2023-05-14T07:12:15.671Z,50.834831
2023-05-14T07:13:15.662Z,50.834854
2023-05-14T07:14:15.610Z,50.834850
2023-05-14T07:15:15.650Z,50.834846
2023-05-14T07:16:15.613Z,50.834846
2023-05-14T07:17:15.667Z,50.834850
2023-05-14T07:18:15.625Z,50.834839
2023-05-14T07:19:15.696Z,50.834835
2023-05-14T07:20:15.626Z,50.834835
2023-05-14T07:21:15.574Z,50.834824
2023-05-14T07:22:15.591Z,50.834824
2023-05-14T07:23:16.244Z,50.834824
2023-05-14T07:24:15.552Z,50.834839
2023-05-14T07:25:15.540Z,50.834835
2023-05-14T07:26:15.494Z,50.834831
2023-05-14T07:27:15.571Z,50.834839
2023-05-14T07:28:15.562Z,50.834831
2023-05-14T07:29:15.495Z,50.834843
2023-05-14T07:30:15.478Z,50.834831
2023-05-14T07:31:15.480Z,50.834827
2023-05-14T07:32:15.835Z,50.834846
2023-05-14T07:33:16.459Z,50.834866
2023-05-14T07:34:15.470Z,50.834854
2023-05-14T07:35:15.433Z,50.834835
2023-05-14T07:36:15.460Z,50.834827
2023-05-14T07:37:15.406Z,50.834820
2023-05-14T07:38:15.400Z,50.834827
2023-05-14T07:39:15.432Z,50.834846
2023-05-14T07:40:15.388Z,50.834850
2023-05-14T07:41:15.382Z,50.834850
2023-05-14T07:42:27.882Z,50.834846
2023-05-14T07:43:17.367Z,50.834827
2023-05-14T07:44:15.379Z,50.834824
2023-05-14T07:45:15.377Z,50.834839
2023-05-14T07:46:15.376Z,50.834843
2023-05-14T07:47:15.491Z,50.834843
2023-05-14T07:48:15.451Z,50.834843
2023-05-14T07:49:15.333Z,50.834827
2023-05-14T07:50:15.333Z,50.834820
2023-05-14T07:51:15.316Z,50.834801
2023-05-14T07:52:15.300Z,50.834816
2023-05-14T07:53:15.303Z,50.834843
2023-05-14T07:54:15.284Z,50.834827
2023-05-14T07:55:15.313Z,50.834793
2023-05-14T07:56:15.286Z,50.834827
2023-05-14T07:57:15.304Z,50.834812
2023-05-14T07:58:15.231Z,50.834812
2023-05-14T07:59:15.239Z,50.834854
2023-05-14T08:00:15.240Z,50.834824
2023-05-14T08:01:15.312Z,50.834831
2023-05-14T08:02:15.275Z,50.834824
2023-05-14T08:03:15.297Z,50.834824
2023-05-14T08:04:16.302Z,50.834824
2023-05-14T08:05:15.185Z,50.834808
2023-05-14T08:06:15.222Z,50.834801
2023-05-14T08:07:15.211Z,50.834805
2023-05-14T08:08:15.171Z,50.834782
2023-05-14T08:09:15.164Z,50.834805
2023-05-14T08:10:15.164Z,50.834820
2023-05-14T08:11:15.182Z,50.834812
2023-05-14T08:12:15.155Z,50.834824
2023-05-14T08:13:15.091Z,50.834843
2023-05-14T08:14:15.116Z,50.834835
2023-05-14T08:15:15.112Z,50.834820
2023-05-14T08:16:15.154Z,50.834831
2023-05-14T08:17:15.226Z,50.834827
2023-05-14T08:18:15.087Z,50.834789
2023-05-14T08:19:15.107Z,50.834793
2023-05-14T08:20:15.087Z,50.834820
2023-05-14T08:21:15.055Z,50.834831
2023-05-14T08:22:15.122Z,50.834831
2023-05-14T08:23:15.038Z,50.834839
2023-05-14T08:24:15.068Z,50.834820
2023-05-14T08:25:15.013Z,50.834846
2023-05-14T08:26:15.013Z,50.834839
2023-05-14T08:27:15.021Z,50.834812
2023-05-14T08:28:15.028Z,50.834831
2023-05-14T08:29:16.612Z,50.834812
2023-05-14T08:30:15.070Z,50.834789
2023-05-14T08:31:15.014Z,50.834785
2023-05-14T08:32:23.249Z,50.834793
2023-05-14T08:33:17.041Z,50.834797
2023-05-14T08:34:14.993Z,50.834801
2023-05-14T08:35:14.953Z,50.834793
2023-05-14T08:36:14.965Z,50.834782
2023-05-14T08:37:14.982Z,50.834774
2023-05-14T08:38:14.928Z,50.834793
2023-05-14T08:39:14.970Z,50.834801
2023-05-14T08:40:14.945Z,50.834789
2023-05-14T08:41:14.894Z,50.834782
2023-05-14T08:42:14.912Z,50.834778
2023-05-14T08:43:14.910Z,50.834770
2023-05-14T08:44:14.941Z,50.834770
2023-05-14T08:45:14.917Z,50.834774
2023-05-14T08:46:14.868Z,50.834770
2023-05-14T08:47:14.873Z,50.834774
2023-05-14T08:48:15.039Z,50.834766
2023-05-14T08:49:14.857Z,50.834770
2023-05-14T08:50:14.860Z,50.834766
2023-05-14T08:51:14.831Z,50.834763
2023-05-14T08:52:14.823Z,50.834774
2023-05-14T08:53:14.802Z,50.834782
2023-05-14T08:54:14.795Z,50.834755
2023-05-14T08:55:14.842Z,50.834759
2023-05-14T08:56:14.797Z,50.834759
2023-05-14T08:57:14.831Z,50.834755
2023-05-14T08:58:14.784Z,50.834751
2023-05-14T08:59:14.785Z,50.834755
2023-05-14T09:00:14.787Z,50.834770
2023-05-14T09:01:14.803Z,50.834763
2023-05-14T09:02:14.802Z,50.834774
2023-05-14T09:03:14.798Z,50.834789
2023-05-14T09:04:14.807Z,50.834782
2023-05-14T09:05:14.754Z,50.834785
2023-05-14T09:06:14.798Z,50.834778
2023-05-14T09:07:14.715Z,50.834789
2023-05-14T09:08:14.725Z,50.834801
2023-05-14T09:09:14.685Z,50.834801
2023-05-14T09:10:14.690Z,50.834816
2023-05-14T09:11:14.781Z,50.834797
2023-05-14T09:12:14.791Z,50.834785
2023-05-14T09:13:15.592Z,50.834797
2023-05-14T09:14:14.733Z,50.834785
2023-05-14T09:15:14.690Z,50.834797
2023-05-14T09:16:14.671Z,50.834785
2023-05-14T09:17:14.690Z,50.834774
2023-05-14T09:18:14.685Z,50.834801
2023-05-14T09:19:14.673Z,50.834797
2023-05-14T09:20:14.615Z,50.834801
2023-05-14T09:21:14.609Z,50.834808
2023-05-14T09:22:14.648Z,50.834812
2023-05-14T09:23:14.581Z,50.834797
2023-05-14T09:24:14.596Z,50.834789
2023-05-14T09:25:14.610Z,50.834820
2023-05-14T09:26:14.603Z,50.834805
2023-05-14T09:27:14.611Z,50.834805
2023-05-14T09:28:14.603Z,50.834797
2023-05-14T09:29:14.703Z,50.834801
2023-05-14T09:30:14.618Z,50.834797
2023-05-14T09:31:14.590Z,50.834801
2023-05-14T09:32:14.539Z,50.834793
2023-05-14T09:33:14.530Z,50.834793
2023-05-14T09:34:14.551Z,50.834778
2023-05-14T09:35:14.513Z,50.834801
2023-05-14T09:36:14.480Z,50.834801
2023-05-14T09:37:14.557Z,50.834808
2023-05-14T09:38:14.493Z,50.834801
2023-05-14T09:39:14.529Z,50.834797
2023-05-14T09:40:14.540Z,50.834805
2023-05-14T09:41:14.486Z,50.834801
2023-05-14T09:42:14.455Z,50.834808
2023-05-14T09:43:14.459Z,50.834816
2023-05-14T09:44:14.468Z,50.834827
2023-05-14T09:45:14.428Z,50.834824
2023-05-14T09:46:14.456Z,50.834812
2023-05-14T09:47:14.456Z,50.834820
2023-05-14T09:48:15.276Z,50.834808
2023-05-14T09:49:15.420Z,50.834805
2023-05-14T09:50:14.378Z,50.834808
2023-05-14T09:51:14.387Z,50.834797
2023-05-14T09:52:14.392Z,50.834797
2023-05-14T09:53:14.385Z,50.834801
2023-05-14T09:54:14.416Z,50.834801
2023-05-14T09:55:14.405Z,50.834805
2023-05-14T09:56:14.349Z,50.834812
2023-05-14T09:57:14.343Z,50.834785
2023-05-14T09:58:14.333Z,50.834805
2023-05-14T09:59:14.345Z,50.834816
2023-05-14T10:00:14.352Z,50.834812
2023-05-14T10:01:14.377Z,50.834789
2023-05-14T10:02:14.302Z,50.834789
2023-05-14T10:03:14.708Z,50.834801
2023-05-14T10:04:14.339Z,50.834805
2023-05-14T10:05:14.303Z,50.834797
2023-05-14T10:06:14.276Z,50.834801
2023-05-14T10:07:14.275Z,50.834778
2023-05-14T10:08:14.266Z,50.834801
2023-05-14T10:09:14.327Z,50.834808
2023-05-14T10:10:14.252Z,50.834801
2023-05-14T10:11:15.073Z,50.834805
2023-05-14T10:12:14.218Z,50.834824
2023-05-14T10:13:14.280Z,50.834816
2023-05-14T10:14:14.235Z,50.834808
2023-05-14T10:15:14.178Z,50.834808
2023-05-14T10:16:14.201Z,50.834793
2023-05-14T10:17:14.215Z,50.834805
2023-05-14T10:18:14.214Z,50.834812
2023-05-14T10:19:14.227Z,50.834805
2023-05-14T10:20:14.169Z,50.834797
2023-05-14T10:21:14.176Z,50.834808
2023-05-14T10:22:14.166Z,50.834820
2023-05-14T10:23:14.149Z,50.834801
2023-05-14T10:24:14.129Z,50.834797
2023-05-14T10:25:14.134Z,50.834801
2023-05-14T10:26:14.134Z,50.834797
2023-05-14T10:27:14.129Z,50.834797
2023-05-14T10:28:14.100Z,50.834801
2023-05-14T10:29:14.100Z,50.834797
2023-05-14T10:30:14.124Z,50.834797
2023-05-14T10:31:14.153Z,50.834816
2023-05-14T10:32:14.088Z,50.834801
2023-05-14T10:33:14.160Z,50.834801
2023-05-14T10:34:14.081Z,50.834812
2023-05-14T10:35:14.061Z,50.834789
2023-05-14T10:36:14.082Z,50.834801
2023-05-14T10:37:14.084Z,50.834793
2023-05-14T10:38:14.088Z,50.834801
2023-05-14T10:39:14.121Z,50.834805
2023-05-14T10:40:14.058Z,50.834820
2023-05-14T10:41:14.009Z,50.834808
2023-05-14T10:42:14.005Z,50.834793
2023-05-14T10:43:14.053Z,50.834789
2023-05-14T10:44:14.003Z,50.834820
2023-05-14T10:45:13.989Z,50.834789
2023-05-14T10:46:14.081Z,50.834808
2023-05-14T10:47:13.972Z,50.834801
2023-05-14T10:48:14.073Z,50.834805
2023-05-14T10:49:14.006Z,50.834805
2023-05-14T10:50:13.967Z,50.834801
2023-05-14T10:51:13.982Z,50.834793
2023-05-14T10:52:13.937Z,50.834782
2023-05-14T10:53:13.921Z,50.834805
2023-05-14T10:54:13.926Z,50.834820
2023-05-14T10:55:13.960Z,50.834808
2023-05-14T10:56:13.904Z,50.834808
2023-05-14T10:57:13.909Z,50.834801
2023-05-14T10:58:13.891Z,50.834793
2023-05-14T10:59:13.973Z,50.834797
2023-05-14T11:00:13.968Z,50.834782
2023-05-14T11:01:13.908Z,50.834793
2023-05-14T11:02:13.965Z,50.834785
2023-05-14T11:03:14.077Z,50.834789
2023-05-14T11:04:13.880Z,50.834793
2023-05-14T11:05:14.042Z,50.834797
2023-05-14T11:06:13.835Z,50.834782
2023-05-14T11:07:13.842Z,50.834797
2023-05-14T11:08:13.840Z,50.834789
2023-05-14T11:09:13.839Z,50.834789
2023-05-14T11:10:13.833Z,50.834785
2023-05-14T11:11:13.845Z,50.834778
2023-05-14T11:12:13.760Z,50.834793
2023-05-14T11:13:13.837Z,50.834785
2023-05-14T11:14:13.754Z,50.834808
2023-05-14T11:15:13.807Z,50.834805
2023-05-14T11:16:22.692Z,50.834808
2023-05-14T11:17:15.838Z,50.834808
2023-05-14T11:18:13.774Z,50.834812
2023-05-14T11:19:13.965Z,50.834805
2023-05-14T11:20:13.770Z,50.834812
2023-05-14T11:21:13.744Z,50.834808
2023-05-14T11:22:13.758Z,50.834801
2023-05-14T11:23:13.768Z,50.834785
2023-05-14T11:24:13.704Z,50.834774
2023-05-14T11:25:13.790Z,50.834782
2023-05-14T11:26:13.774Z,50.834801
2023-05-14T11:27:13.700Z,50.834808
2023-05-14T11:28:13.697Z,50.834805
2023-05-14T11:29:13.657Z,50.834782
2023-05-14T11:30:13.666Z,50.834782
2023-05-14T11:31:13.668Z,50.834797
2023-05-14T11:32:13.667Z,50.834801
2023-05-14T11:33:13.661Z,50.834793
2023-05-14T11:34:13.649Z,50.834801
2023-05-14T11:35:13.651Z,50.834789
2023-05-14T11:36:13.613Z,50.834808
2023-05-14T11:37:13.600Z,50.834816
2023-05-14T11:38:13.662Z,50.834820
2023-05-14T11:39:13.586Z,50.834831
2023-05-14T11:40:13.576Z,50.834797
2023-05-14T11:41:13.556Z,50.834820